首页
METAR-TAF:

METAR-TAF

机场 :

梅赫拉巴德國際機場

德黑兰, 伊朗

纬度: 35-41N, 经度: 051-21E, 海拔: 1204米

当前天气观测

该预报发布于29分钟前的07:00 UTC
风速6节,风向南转南东
温度 12°C
湿度 50%
气压 1017 hPa
能見度: 3000

METAR: OIII 290700Z 15006KT 3000 HZ NSC 12/02 Q1017 A3003 NOSIG

时间: 10:59 (07:29 UTC)

预报

该预报发布于1小时和59分钟前的05:30 UTC
预报有效从29日的 06点(UTC)到 01日的 12点(UTC)
风速8节,风向
能見度: 3000
成为
从 29日的 07点(UTC)到 29日的 09点(UTC)
能見度: 6000
成为
从 29日的 20点(UTC)到 29日的 22点(UTC)
少量云层高于3500英尺, 积雨云.
散云层高于4000英尺
多云层高于12000英尺
短暂存在
从 29日的 22点(UTC)到 01日的 02点(UTC)
能見度: 5000
成为
从 01日的 00点(UTC)到 01日的 02点(UTC)
能見度: 3000
成为
从 01日的 06点(UTC)到 01日的 08点(UTC)
能見度: 6000

TAF: OIII 290530Z 2906/0112 09008KT 3000 HZ NSC BECMG 2907/2909 6000 BECMG 2920/2922 FEW035CB SCT040 BKN120 TEMPO 2922/0102 5000 RA BECMG 0100/0102 3000 BR/HZ BECMG 0106/0108 6000

超过4000个机场的气象观测和天气预报(METAR&TAF报告)。

可查询的气象台以黄色和红色小点在地图上表示。

将鼠标移到小点上方,可查看气象台名称。

然后点击查看天气观测和预报。

如需切换地图:点击带黑十字的绿色按钮放大地图;点击带横线的绿色按钮缩小地图;或者点击绿色箭头查看邻近地区的地图。


METAR-TAF: